sensor_id;sensor_type;location;lat;lon;timestamp;P1;durP1;ratioP1;P2;durP2;ratioP2
43861;SDS011;29510;52.140;5.034;2023-02-20T00:04:02;4.38;;;2.72;;
43861;SDS011;29510;52.140;5.034;2023-02-20T00:14:05;4.95;;;3.15;;
43861;SDS011;29510;52.140;5.034;2023-02-20T00:24:06;10.20;;;4.85;;
43861;SDS011;29510;52.140;5.034;2023-02-20T00:34:07;8.43;;;3.20;;
43861;SDS011;29510;52.140;5.034;2023-02-20T00:44:08;7.15;;;3.42;;
43861;SDS011;29510;52.140;5.034;2023-02-20T00:54:09;6.80;;;3.78;;
43861;SDS011;29510;52.140;5.034;2023-02-20T01:04:10;9.85;;;3.45;;
43861;SDS011;29510;52.140;5.034;2023-02-20T01:14:12;8.40;;;3.25;;
43861;SDS011;29510;52.140;5.034;2023-02-20T01:24:14;8.07;;;4.80;;
43861;SDS011;29510;52.140;5.034;2023-02-20T01:34:16;8.68;;;3.83;;
43861;SDS011;29510;52.140;5.034;2023-02-20T01:44:24;8.65;;;4.28;;
43861;SDS011;29510;52.140;5.034;2023-02-20T01:54:27;21.48;;;5.78;;
43861;SDS011;29510;52.140;5.034;2023-02-20T02:04:30;9.43;;;4.88;;
43861;SDS011;29510;52.140;5.034;2023-02-20T02:14:32;11.95;;;7.25;;
43861;SDS011;29510;52.140;5.034;2023-02-20T02:35:14;27.73;;;9.70;;
43861;SDS011;29510;52.140;5.034;2023-02-20T02:55:33;17.85;;;9.45;;
43861;SDS011;29510;52.140;5.034;2023-02-20T03:06:21;21.92;;;10.30;;
43861;SDS011;29510;52.140;5.034;2023-02-20T03:16:01;24.95;;;10.23;;
43861;SDS011;29510;52.140;5.034;2023-02-20T03:26:04;18.20;;;8.95;;
43861;SDS011;29510;52.140;5.034;2023-02-20T03:36:21;20.23;;;9.40;;
43861;SDS011;29510;52.140;5.034;2023-02-20T03:46:46;17.35;;;10.25;;
43861;SDS011;29510;52.140;5.034;2023-02-20T03:56:53;20.10;;;11.07;;
43861;SDS011;29510;52.140;5.034;2023-02-20T04:07:18;20.50;;;9.15;;
43861;SDS011;29510;52.140;5.034;2023-02-20T04:17:41;13.93;;;6.05;;
43861;SDS011;29510;52.140;5.034;2023-02-20T04:27:49;14.70;;;7.80;;
43861;SDS011;29510;52.140;5.034;2023-02-20T04:37:50;6.85;;;3.72;;
43861;SDS011;29510;52.140;5.034;2023-02-20T04:47:51;11.48;;;4.47;;
43861;SDS011;29510;52.140;5.034;2023-02-20T04:57:53;12.77;;;5.43;;
43861;SDS011;29510;52.140;5.034;2023-02-20T05:08:03;10.57;;;5.38;;
43861;SDS011;29510;52.140;5.034;2023-02-20T05:18:06;13.50;;;4.90;;
43861;SDS011;29510;52.140;5.034;2023-02-20T05:28:07;9.18;;;4.45;;
43861;SDS011;29510;52.140;5.034;2023-02-20T05:38:08;11.23;;;5.05;;
43861;SDS011;29510;52.140;5.034;2023-02-20T05:48:12;7.13;;;3.90;;
43861;SDS011;29510;52.140;5.034;2023-02-20T05:58:14;6.50;;;3.88;;
43861;SDS011;29510;52.140;5.034;2023-02-20T06:08:15;12.80;;;4.88;;
43861;SDS011;29510;52.140;5.034;2023-02-20T06:18:16;6.82;;;4.13;;
43861;SDS011;29510;52.140;5.034;2023-02-20T06:28:17;10.48;;;4.57;;
43861;SDS011;29510;52.140;5.034;2023-02-20T06:38:21;8.95;;;3.83;;
43861;SDS011;29510;52.140;5.034;2023-02-20T06:48:22;9.45;;;3.53;;
43861;SDS011;29510;52.140;5.034;2023-02-20T06:58:23;7.95;;;3.15;;
43861;SDS011;29510;52.140;5.034;2023-02-20T07:08:24;6.72;;;3.58;;
43861;SDS011;29510;52.140;5.034;2023-02-20T07:18:25;10.63;;;4.20;;
43861;SDS011;29510;52.140;5.034;2023-02-20T07:28:27;8.30;;;3.53;;
43861;SDS011;29510;52.140;5.034;2023-02-20T07:38:28;8.52;;;2.72;;
43861;SDS011;29510;52.140;5.034;2023-02-20T07:48:29;8.98;;;3.08;;
43861;SDS011;29510;52.140;5.034;2023-02-20T07:58:30;10.45;;;4.45;;
43861;SDS011;29510;52.140;5.034;2023-02-20T08:08:31;7.50;;;2.88;;
43861;SDS011;29510;52.140;5.034;2023-02-20T08:18:32;12.10;;;4.43;;
43861;SDS011;29510;52.140;5.034;2023-02-20T08:28:33;9.38;;;3.95;;
43861;SDS011;29510;52.140;5.034;2023-02-20T08:38:35;6.65;;;3.05;;
43861;SDS011;29510;52.140;5.034;2023-02-20T08:48:37;8.15;;;3.83;;
43861;SDS011;29510;52.140;5.034;2023-02-20T08:58:39;7.68;;;3.42;;
43861;SDS011;29510;52.140;5.034;2023-02-20T09:08:40;9.85;;;5.18;;
43861;SDS011;29510;52.140;5.034;2023-02-20T09:18:42;12.13;;;3.97;;
43861;SDS011;29510;52.140;5.034;2023-02-20T09:28:43;10.30;;;4.00;;
43861;SDS011;29510;52.140;5.034;2023-02-20T09:38:44;8.43;;;4.32;;
43861;SDS011;29510;52.140;5.034;2023-02-20T09:48:56;11.50;;;4.53;;
43861;SDS011;29510;52.140;5.034;2023-02-20T09:59:12;13.07;;;4.55;;
43861;SDS011;29510;52.140;5.034;2023-02-20T10:09:17;6.57;;;3.10;;
43861;SDS011;29510;52.140;5.034;2023-02-20T10:19:40;4.75;;;2.30;;
43861;SDS011;29510;52.140;5.034;2023-02-20T10:29:53;4.95;;;2.63;;
43861;SDS011;29510;52.140;5.034;2023-02-20T10:39:57;5.38;;;1.90;;
43861;SDS011;29510;52.140;5.034;2023-02-20T11:00:35;12.48;;;5.40;;
43861;SDS011;29510;52.140;5.034;2023-02-20T11:10:44;7.88;;;2.92;;
43861;SDS011;29510;52.140;5.034;2023-02-20T11:20:46;4.07;;;2.33;;
43861;SDS011;29510;52.140;5.034;2023-02-20T11:30:49;3.33;;;1.85;;
43861;SDS011;29510;52.140;5.034;2023-02-20T11:41:00;10.88;;;3.08;;
43861;SDS011;29510;52.140;5.034;2023-02-20T11:51:09;5.43;;;1.93;;
43861;SDS011;29510;52.140;5.034;2023-02-20T12:01:33;3.50;;;1.90;;
43861;SDS011;29510;52.140;5.034;2023-02-20T12:11:36;3.60;;;1.35;;
43861;SDS011;29510;52.140;5.034;2023-02-20T12:32:13;3.45;;;1.20;;
43861;SDS011;29510;52.140;5.034;2023-02-20T12:52:38;8.00;;;1.85;;
43861;SDS011;29510;52.140;5.034;2023-02-20T13:03:10;5.33;;;2.20;;
43861;SDS011;29510;52.140;5.034;2023-02-20T13:33:27;5.72;;;1.77;;
43861;SDS011;29510;52.140;5.034;2023-02-20T13:43:35;4.85;;;1.73;;
43861;SDS011;29510;52.140;5.034;2023-02-20T13:53:37;8.02;;;1.40;;
43861;SDS011;29510;52.140;5.034;2023-02-20T14:03:38;3.25;;;1.23;;
43861;SDS011;29510;52.140;5.034;2023-02-20T14:13:40;9.98;;;1.40;;
43861;SDS011;29510;52.140;5.034;2023-02-20T14:23:44;3.70;;;1.52;;
43861;SDS011;29510;52.140;5.034;2023-02-20T14:33:48;2.85;;;1.60;;
43861;SDS011;29510;52.140;5.034;2023-02-20T14:43:54;6.95;;;2.78;;
43861;SDS011;29510;52.140;5.034;2023-02-20T15:04:20;3.88;;;1.55;;
43861;SDS011;29510;52.140;5.034;2023-02-20T15:14:23;4.20;;;1.80;;
43861;SDS011;29510;52.140;5.034;2023-02-20T15:34:33;2.67;;;1.42;;
43861;SDS011;29510;52.140;5.034;2023-02-20T15:44:36;3.03;;;0.85;;
43861;SDS011;29510;52.140;5.034;2023-02-20T15:54:37;2.95;;;1.60;;
43861;SDS011;29510;52.140;5.034;2023-02-20T16:04:38;4.20;;;1.85;;
43861;SDS011;29510;52.140;5.034;2023-02-20T16:14:39;2.88;;;1.30;;
43861;SDS011;29510;52.140;5.034;2023-02-20T16:24:40;5.43;;;1.73;;
43861;SDS011;29510;52.140;5.034;2023-02-20T16:34:43;3.58;;;1.80;;
43861;SDS011;29510;52.140;5.034;2023-02-20T16:44:45;3.47;;;2.17;;
43861;SDS011;29510;52.140;5.034;2023-02-20T16:54:48;3.97;;;2.00;;
43861;SDS011;29510;52.140;5.034;2023-02-20T17:04:49;4.18;;;2.35;;
43861;SDS011;29510;52.140;5.034;2023-02-20T17:14:50;4.30;;;2.03;;
43861;SDS011;29510;52.140;5.034;2023-02-20T17:24:57;8.40;;;3.08;;
43861;SDS011;29510;52.140;5.034;2023-02-20T17:34:58;3.67;;;1.92;;
43861;SDS011;29510;52.140;5.034;2023-02-20T17:44:59;7.68;;;2.20;;
43861;SDS011;29510;52.140;5.034;2023-02-20T17:55:00;6.78;;;3.22;;
43861;SDS011;29510;52.140;5.034;2023-02-20T18:05:01;4.97;;;1.92;;
43861;SDS011;29510;52.140;5.034;2023-02-20T18:15:03;5.57;;;3.22;;
43861;SDS011;29510;52.140;5.034;2023-02-20T18:25:04;13.25;;;3.88;;
43861;SDS011;29510;52.140;5.034;2023-02-20T18:35:07;9.20;;;5.00;;
43861;SDS011;29510;52.140;5.034;2023-02-20T18:45:08;10.63;;;6.00;;
43861;SDS011;29510;52.140;5.034;2023-02-20T18:55:09;17.50;;;5.75;;
43861;SDS011;29510;52.140;5.034;2023-02-20T19:05:16;10.48;;;7.03;;
43861;SDS011;29510;52.140;5.034;2023-02-20T19:15:18;15.25;;;6.45;;
43861;SDS011;29510;52.140;5.034;2023-02-20T19:25:20;11.40;;;6.25;;
43861;SDS011;29510;52.140;5.034;2023-02-20T19:35:21;10.88;;;5.57;;
43861;SDS011;29510;52.140;5.034;2023-02-20T19:45:22;22.67;;;7.45;;
43861;SDS011;29510;52.140;5.034;2023-02-20T19:55:24;10.25;;;5.07;;
43861;SDS011;29510;52.140;5.034;2023-02-20T20:05:25;11.55;;;4.80;;
43861;SDS011;29510;52.140;5.034;2023-02-20T20:15:27;15.20;;;7.38;;
43861;SDS011;29510;52.140;5.034;2023-02-20T20:25:28;13.52;;;6.00;;
43861;SDS011;29510;52.140;5.034;2023-02-20T20:35:30;15.50;;;6.95;;
43861;SDS011;29510;52.140;5.034;2023-02-20T20:45:31;29.85;;;7.43;;
43861;SDS011;29510;52.140;5.034;2023-02-20T20:55:32;15.05;;;8.38;;
43861;SDS011;29510;52.140;5.034;2023-02-20T21:05:34;12.90;;;5.80;;
43861;SDS011;29510;52.140;5.034;2023-02-20T21:15:35;20.08;;;7.95;;
43861;SDS011;29510;52.140;5.034;2023-02-20T21:25:36;12.93;;;6.60;;
43861;SDS011;29510;52.140;5.034;2023-02-20T21:35:38;11.23;;;6.95;;
43861;SDS011;29510;52.140;5.034;2023-02-20T21:45:39;11.52;;;6.95;;
43861;SDS011;29510;52.140;5.034;2023-02-20T21:55:40;12.23;;;7.20;;
43861;SDS011;29510;52.140;5.034;2023-02-20T22:05:41;18.58;;;7.20;;
43861;SDS011;29510;52.140;5.034;2023-02-20T22:15:42;10.30;;;7.10;;
43861;SDS011;29510;52.140;5.034;2023-02-20T22:26:02;13.95;;;7.53;;
43861;SDS011;29510;52.140;5.034;2023-02-20T22:36:22;14.07;;;8.25;;
43861;SDS011;29510;52.140;5.034;2023-02-20T22:46:41;13.75;;;6.55;;
43861;SDS011;29510;52.140;5.034;2023-02-20T22:57:01;10.95;;;6.60;;
43861;SDS011;29510;52.140;5.034;2023-02-20T23:07:21;16.60;;;6.65;;
43861;SDS011;29510;52.140;5.034;2023-02-20T23:17:44;13.32;;;5.85;;
43861;SDS011;29510;52.140;5.034;2023-02-20T23:28:04;19.58;;;6.93;;
43861;SDS011;29510;52.140;5.034;2023-02-20T23:38:23;16.52;;;7.25;;
43861;SDS011;29510;52.140;5.034;2023-02-20T23:48:43;17.77;;;6.93;;
43861;SDS011;29510;52.140;5.034;2023-02-20T23:59:03;12.80;;;6.50;;
